sensor_id;sensor_type;location;lat;lon;timestamp;P1;durP1;ratioP1;P2;durP2;ratioP2
57573;SDS011;63722;48.858;21.906;2023-02-15T00:00:52;2.75;;;2.22;;
57573;SDS011;63722;48.858;21.906;2023-02-15T00:03:19;1.95;;;1.85;;
57573;SDS011;63722;48.858;21.906;2023-02-15T00:05:45;2.33;;;2.22;;
57573;SDS011;63722;48.858;21.906;2023-02-15T00:08:11;2.35;;;2.20;;
57573;SDS011;63722;48.858;21.906;2023-02-15T00:10:37;1.92;;;1.83;;
57573;SDS011;63722;48.858;21.906;2023-02-15T00:13:02;2.45;;;2.35;;
57573;SDS011;63722;48.858;21.906;2023-02-15T00:15:27;2.38;;;2.28;;
57573;SDS011;63722;48.858;21.906;2023-02-15T00:17:53;2.35;;;2.22;;
57573;SDS011;63722;48.858;21.906;2023-02-15T00:20:18;2.28;;;2.17;;
57573;SDS011;63722;48.858;21.906;2023-02-15T00:22:44;2.72;;;2.45;;
57573;SDS011;63722;48.858;21.906;2023-02-15T00:25:09;2.10;;;2.00;;
57573;SDS011;63722;48.858;21.906;2023-02-15T00:27:35;2.10;;;2.00;;
57573;SDS011;63722;48.858;21.906;2023-02-15T00:30:00;2.47;;;2.38;;
57573;SDS011;63722;48.858;21.906;2023-02-15T00:32:25;2.28;;;2.17;;
57573;SDS011;63722;48.858;21.906;2023-02-15T00:34:51;2.35;;;2.25;;
57573;SDS011;63722;48.858;21.906;2023-02-15T00:37:16;2.40;;;2.30;;
57573;SDS011;63722;48.858;21.906;2023-02-15T00:39:42;2.47;;;2.38;;
57573;SDS011;63722;48.858;21.906;2023-02-15T00:42:07;2.03;;;1.92;;
57573;SDS011;63722;48.858;21.906;2023-02-15T00:44:32;2.20;;;2.10;;
57573;SDS011;63722;48.858;21.906;2023-02-15T00:46:58;3.13;;;2.60;;
57573;SDS011;63722;48.858;21.906;2023-02-15T00:49:23;2.88;;;2.45;;
57573;SDS011;63722;48.858;21.906;2023-02-15T00:51:48;2.83;;;2.63;;
57573;SDS011;63722;48.858;21.906;2023-02-15T00:54:14;2.97;;;2.30;;
57573;SDS011;63722;48.858;21.906;2023-02-15T00:56:39;2.15;;;2.05;;
57573;SDS011;63722;48.858;21.906;2023-02-15T00:59:05;2.40;;;2.30;;
57573;SDS011;63722;48.858;21.906;2023-02-15T01:01:30;2.20;;;2.10;;
57573;SDS011;63722;48.858;21.906;2023-02-15T01:03:56;2.30;;;2.20;;
57573;SDS011;63722;48.858;21.906;2023-02-15T01:06:21;2.35;;;2.25;;
57573;SDS011;63722;48.858;21.906;2023-02-15T01:08:47;2.50;;;2.35;;
57573;SDS011;63722;48.858;21.906;2023-02-15T01:11:13;2.22;;;2.13;;
57573;SDS011;63722;48.858;21.906;2023-02-15T01:13:46;2.47;;;2.28;;
57573;SDS011;63722;48.858;21.906;2023-02-15T01:16:14;2.47;;;2.38;;
57573;SDS011;63722;48.858;21.906;2023-02-15T01:18:39;2.10;;;2.00;;
57573;SDS011;63722;48.858;21.906;2023-02-15T01:21:08;2.35;;;2.25;;
57573;SDS011;63722;48.858;21.906;2023-02-15T01:23:41;2.75;;;2.60;;
57573;SDS011;63722;48.858;21.906;2023-02-15T01:26:08;2.40;;;2.30;;
57573;SDS011;63722;48.858;21.906;2023-02-15T01:28:34;2.72;;;2.63;;
57573;SDS011;63722;48.858;21.906;2023-02-15T01:31:03;2.55;;;2.35;;
57573;SDS011;63722;48.858;21.906;2023-02-15T01:33:30;2.40;;;2.30;;
57573;SDS011;63722;48.858;21.906;2023-02-15T01:35:56;2.60;;;2.45;;
57573;SDS011;63722;48.858;21.906;2023-02-15T01:38:22;2.60;;;2.50;;
57573;SDS011;63722;48.858;21.906;2023-02-15T01:40:50;2.20;;;2.10;;
57573;SDS011;63722;48.858;21.906;2023-02-15T01:43:17;2.55;;;2.45;;
57573;SDS011;63722;48.858;21.906;2023-02-15T01:45:43;2.58;;;2.38;;
57573;SDS011;63722;48.858;21.906;2023-02-15T01:50:39;2.35;;;2.25;;
57573;SDS011;63722;48.858;21.906;2023-02-15T01:55:55;2.65;;;2.50;;
57573;SDS011;63722;48.858;21.906;2023-02-15T01:58:24;2.40;;;2.30;;
57573;SDS011;63722;48.858;21.906;2023-02-15T02:00:52;3.00;;;2.70;;
57573;SDS011;63722;48.858;21.906;2023-02-15T02:03:26;2.50;;;2.30;;
57573;SDS011;63722;48.858;21.906;2023-02-15T02:06:01;2.33;;;2.22;;
57573;SDS011;63722;48.858;21.906;2023-02-15T02:08:27;2.25;;;2.15;;
57573;SDS011;63722;48.858;21.906;2023-02-15T02:10:53;2.30;;;2.20;;
57573;SDS011;63722;48.858;21.906;2023-02-15T02:13:18;2.88;;;2.67;;
57573;SDS011;63722;48.858;21.906;2023-02-15T02:16:06;2.70;;;2.60;;
57573;SDS011;63722;48.858;21.906;2023-02-15T02:18:41;2.20;;;2.10;;
57573;SDS011;63722;48.858;21.906;2023-02-15T02:40:34;2.20;;;2.10;;
57573;SDS011;63722;48.858;21.906;2023-02-15T02:46:28;2.40;;;2.30;;
57573;SDS011;63722;48.858;21.906;2023-02-15T02:49:00;2.33;;;2.22;;
57573;SDS011;63722;48.858;21.906;2023-02-15T02:51:26;2.38;;;2.28;;
57573;SDS011;63722;48.858;21.906;2023-02-15T02:53:53;2.90;;;2.70;;
57573;SDS011;63722;48.858;21.906;2023-02-15T02:56:38;2.50;;;2.40;;
57573;SDS011;63722;48.858;21.906;2023-02-15T02:59:12;2.10;;;2.00;;
57573;SDS011;63722;48.858;21.906;2023-02-15T03:01:45;2.80;;;2.65;;
57573;SDS011;63722;48.858;21.906;2023-02-15T03:04:20;2.28;;;2.17;;
57573;SDS011;63722;48.858;21.906;2023-02-15T03:06:53;2.40;;;2.30;;
57573;SDS011;63722;48.858;21.906;2023-02-15T03:09:26;2.67;;;2.50;;
57573;SDS011;63722;48.858;21.906;2023-02-15T03:12:06;2.92;;;2.78;;
57573;SDS011;63722;48.858;21.906;2023-02-15T03:14:33;2.30;;;2.20;;
57573;SDS011;63722;48.858;21.906;2023-02-15T03:17:00;2.80;;;2.63;;
57573;SDS011;63722;48.858;21.906;2023-02-15T03:19:29;2.67;;;2.58;;
57573;SDS011;63722;48.858;21.906;2023-02-15T03:21:59;2.50;;;2.40;;
57573;SDS011;63722;48.858;21.906;2023-02-15T03:24:44;2.63;;;2.42;;
57573;SDS011;63722;48.858;21.906;2023-02-15T03:27:17;2.20;;;2.10;;
57573;SDS011;63722;48.858;21.906;2023-02-15T03:29:48;2.72;;;2.53;;
57573;SDS011;63722;48.858;21.906;2023-02-15T03:32:17;2.58;;;2.47;;
57573;SDS011;63722;48.858;21.906;2023-02-15T03:34:43;2.40;;;2.30;;
57573;SDS011;63722;48.858;21.906;2023-02-15T03:37:22;2.67;;;2.47;;
57573;SDS011;63722;48.858;21.906;2023-02-15T03:40:02;2.20;;;2.10;;
57573;SDS011;63722;48.858;21.906;2023-02-15T03:42:51;2.50;;;2.30;;
57573;SDS011;63722;48.858;21.906;2023-02-15T03:45:24;2.40;;;2.30;;
57573;SDS011;63722;48.858;21.906;2023-02-15T03:47:52;2.25;;;2.15;;
57573;SDS011;63722;48.858;21.906;2023-02-15T03:50:23;2.95;;;2.58;;
57573;SDS011;63722;48.858;21.906;2023-02-15T03:53:12;2.53;;;2.42;;
57573;SDS011;63722;48.858;21.906;2023-02-15T03:55:40;2.75;;;2.65;;
57573;SDS011;63722;48.858;21.906;2023-02-15T03:58:05;2.40;;;2.30;;
57573;SDS011;63722;48.858;21.906;2023-02-15T04:00:55;2.40;;;2.30;;
57573;SDS011;63722;48.858;21.906;2023-02-15T04:03:51;2.30;;;2.20;;
57573;SDS011;63722;48.858;21.906;2023-02-15T04:06:25;2.47;;;2.38;;
57573;SDS011;63722;48.858;21.906;2023-02-15T04:08:50;2.72;;;2.55;;
57573;SDS011;63722;48.858;21.906;2023-02-15T04:11:34;2.40;;;2.30;;
57573;SDS011;63722;48.858;21.906;2023-02-15T04:13:59;2.83;;;2.63;;
57573;SDS011;63722;48.858;21.906;2023-02-15T04:16:44;2.40;;;2.30;;
57573;SDS011;63722;48.858;21.906;2023-02-15T04:19:10;2.75;;;2.65;;
57573;SDS011;63722;48.858;21.906;2023-02-15T04:21:54;2.35;;;2.25;;
57573;SDS011;63722;48.858;21.906;2023-02-15T04:24:38;2.63;;;2.53;;
57573;SDS011;63722;48.858;21.906;2023-02-15T04:27:22;2.28;;;2.17;;
57573;SDS011;63722;48.858;21.906;2023-02-15T04:29:47;2.42;;;2.33;;
57573;SDS011;63722;48.858;21.906;2023-02-15T04:32:14;2.55;;;2.45;;
57573;SDS011;63722;48.858;21.906;2023-02-15T04:34:40;2.70;;;2.50;;
57573;SDS011;63722;48.858;21.906;2023-02-15T04:37:05;2.47;;;2.38;;
57573;SDS011;63722;48.858;21.906;2023-02-15T04:39:30;2.47;;;2.38;;
57573;SDS011;63722;48.858;21.906;2023-02-15T04:41:57;2.70;;;2.60;;
57573;SDS011;63722;48.858;21.906;2023-02-15T04:44:22;2.42;;;2.33;;
57573;SDS011;63722;48.858;21.906;2023-02-15T04:46:48;2.35;;;2.25;;
57573;SDS011;63722;48.858;21.906;2023-02-15T04:49:13;2.83;;;2.70;;
57573;SDS011;63722;48.858;21.906;2023-02-15T04:51:39;2.05;;;1.95;;
57573;SDS011;63722;48.858;21.906;2023-02-15T04:54:04;2.65;;;2.55;;
57573;SDS011;63722;48.858;21.906;2023-02-15T04:56:29;2.35;;;2.25;;
57573;SDS011;63722;48.858;21.906;2023-02-15T04:58:56;2.40;;;2.30;;
57573;SDS011;63722;48.858;21.906;2023-02-15T05:01:21;2.60;;;2.50;;
57573;SDS011;63722;48.858;21.906;2023-02-15T05:03:47;2.20;;;2.10;;
57573;SDS011;63722;48.858;21.906;2023-02-15T05:06:12;2.90;;;2.58;;
57573;SDS011;63722;48.858;21.906;2023-02-15T05:08:37;3.30;;;2.67;;
57573;SDS011;63722;48.858;21.906;2023-02-15T05:11:03;2.20;;;2.10;;
57573;SDS011;63722;48.858;21.906;2023-02-15T05:13:28;2.15;;;2.05;;
57573;SDS011;63722;48.858;21.906;2023-02-15T05:15:54;2.58;;;2.47;;
57573;SDS011;63722;48.858;21.906;2023-02-15T05:18:20;3.00;;;2.70;;
57573;SDS011;63722;48.858;21.906;2023-02-15T05:20:46;2.80;;;2.63;;
57573;SDS011;63722;48.858;21.906;2023-02-15T05:23:12;2.40;;;2.30;;
57573;SDS011;63722;48.858;21.906;2023-02-15T05:25:38;2.45;;;2.30;;
57573;SDS011;63722;48.858;21.906;2023-02-15T05:28:23;2.25;;;2.15;;
57573;SDS011;63722;48.858;21.906;2023-02-15T05:30:51;2.40;;;2.30;;
57573;SDS011;63722;48.858;21.906;2023-02-15T05:33:22;2.60;;;2.50;;
57573;SDS011;63722;48.858;21.906;2023-02-15T05:35:48;2.40;;;2.30;;
57573;SDS011;63722;48.858;21.906;2023-02-15T05:38:13;2.38;;;2.28;;
57573;SDS011;63722;48.858;21.906;2023-02-15T05:40:39;2.67;;;2.50;;
57573;SDS011;63722;48.858;21.906;2023-02-15T05:43:04;2.63;;;2.53;;
57573;SDS011;63722;48.858;21.906;2023-02-15T05:45:29;2.70;;;2.60;;
57573;SDS011;63722;48.858;21.906;2023-02-15T05:47:55;2.38;;;2.28;;
57573;SDS011;63722;48.858;21.906;2023-02-15T05:50:20;2.53;;;2.42;;
57573;SDS011;63722;48.858;21.906;2023-02-15T05:52:45;2.65;;;2.55;;
57573;SDS011;63722;48.858;21.906;2023-02-15T05:55:11;2.60;;;2.40;;
57573;SDS011;63722;48.858;21.906;2023-02-15T05:57:37;2.30;;;2.20;;
57573;SDS011;63722;48.858;21.906;2023-02-15T06:00:03;2.92;;;2.72;;
57573;SDS011;63722;48.858;21.906;2023-02-15T06:02:33;2.50;;;2.40;;
57573;SDS011;63722;48.858;21.906;2023-02-15T06:04:59;2.28;;;2.17;;
57573;SDS011;63722;48.858;21.906;2023-02-15T06:07:24;2.40;;;2.20;;
57573;SDS011;63722;48.858;21.906;2023-02-15T06:09:50;2.63;;;2.53;;
57573;SDS011;63722;48.858;21.906;2023-02-15T06:12:15;2.75;;;2.47;;
57573;SDS011;63722;48.858;21.906;2023-02-15T06:14:41;2.40;;;2.30;;
57573;SDS011;63722;48.858;21.906;2023-02-15T06:17:06;2.88;;;2.72;;
57573;SDS011;63722;48.858;21.906;2023-02-15T06:19:31;4.97;;;2.88;;
57573;SDS011;63722;48.858;21.906;2023-02-15T06:21:57;7.22;;;2.53;;
57573;SDS011;63722;48.858;21.906;2023-02-15T06:24:22;7.45;;;3.05;;
57573;SDS011;63722;48.858;21.906;2023-02-15T06:26:48;4.93;;;3.25;;
57573;SDS011;63722;48.858;21.906;2023-02-15T06:29:13;5.53;;;3.65;;
57573;SDS011;63722;48.858;21.906;2023-02-15T06:31:38;7.72;;;3.08;;
57573;SDS011;63722;48.858;21.906;2023-02-15T06:34:04;4.13;;;2.97;;
57573;SDS011;63722;48.858;21.906;2023-02-15T06:36:30;6.07;;;2.92;;
57573;SDS011;63722;48.858;21.906;2023-02-15T06:38:55;3.10;;;2.90;;
57573;SDS011;63722;48.858;21.906;2023-02-15T06:41:21;3.17;;;2.88;;
57573;SDS011;63722;48.858;21.906;2023-02-15T06:43:48;3.22;;;2.85;;
57573;SDS011;63722;48.858;21.906;2023-02-15T06:46:13;6.32;;;2.78;;
57573;SDS011;63722;48.858;21.906;2023-02-15T06:48:38;7.18;;;2.47;;
57573;SDS011;63722;48.858;21.906;2023-02-15T06:51:04;4.15;;;2.75;;
57573;SDS011;63722;48.858;21.906;2023-02-15T06:53:29;5.75;;;2.97;;
57573;SDS011;63722;48.858;21.906;2023-02-15T06:56:05;7.68;;;2.58;;
57573;SDS011;63722;48.858;21.906;2023-02-15T06:58:38;4.03;;;2.95;;
57573;SDS011;63722;48.858;21.906;2023-02-15T07:01:04;3.10;;;2.60;;
57573;SDS011;63722;48.858;21.906;2023-02-15T07:03:31;2.78;;;2.60;;
57573;SDS011;63722;48.858;21.906;2023-02-15T07:05:57;2.70;;;2.50;;
57573;SDS011;63722;48.858;21.906;2023-02-15T07:08:24;5.40;;;2.50;;
57573;SDS011;63722;48.858;21.906;2023-02-15T07:10:51;2.80;;;2.60;;
57573;SDS011;63722;48.858;21.906;2023-02-15T07:13:17;2.60;;;2.33;;
57573;SDS011;63722;48.858;21.906;2023-02-15T07:15:44;9.48;;;2.60;;
57573;SDS011;63722;48.858;21.906;2023-02-15T07:18:10;5.75;;;2.72;;
57573;SDS011;63722;48.858;21.906;2023-02-15T07:20:38;2.95;;;2.65;;
57573;SDS011;63722;48.858;21.906;2023-02-15T07:23:06;7.25;;;2.55;;
57573;SDS011;63722;48.858;21.906;2023-02-15T07:25:33;4.97;;;3.35;;
57573;SDS011;63722;48.858;21.906;2023-02-15T07:27:59;5.35;;;2.90;;
57573;SDS011;63722;48.858;21.906;2023-02-15T07:30:27;5.03;;;3.03;;
57573;SDS011;63722;48.858;21.906;2023-02-15T07:32:59;3.13;;;2.90;;
57573;SDS011;63722;48.858;21.906;2023-02-15T07:35:47;5.95;;;2.88;;
57573;SDS011;63722;48.858;21.906;2023-02-15T07:38:19;16.27;;;3.33;;
57573;SDS011;63722;48.858;21.906;2023-02-15T07:40:46;7.60;;;3.30;;
57573;SDS011;63722;48.858;21.906;2023-02-15T07:43:12;4.22;;;3.30;;
57573;SDS011;63722;48.858;21.906;2023-02-15T07:45:38;4.22;;;3.00;;
57573;SDS011;63722;48.858;21.906;2023-02-15T07:48:04;3.42;;;3.15;;
57573;SDS011;63722;48.858;21.906;2023-02-15T07:50:31;9.82;;;3.53;;
57573;SDS011;63722;48.858;21.906;2023-02-15T07:52:57;10.88;;;3.13;;
57573;SDS011;63722;48.858;21.906;2023-02-15T07:55:23;11.60;;;2.67;;
57573;SDS011;63722;48.858;21.906;2023-02-15T07:57:49;6.68;;;3.15;;
57573;SDS011;63722;48.858;21.906;2023-02-15T08:00:17;3.03;;;2.67;;
57573;SDS011;63722;48.858;21.906;2023-02-15T08:02:48;3.67;;;2.72;;
57573;SDS011;63722;48.858;21.906;2023-02-15T08:05:34;3.38;;;2.97;;
57573;SDS011;63722;48.858;21.906;2023-02-15T08:07:59;5.30;;;3.05;;
57573;SDS011;63722;48.858;21.906;2023-02-15T08:10:25;9.38;;;2.88;;
57573;SDS011;63722;48.858;21.906;2023-02-15T08:13:10;3.25;;;2.80;;
57573;SDS011;63722;48.858;21.906;2023-02-15T08:15:36;8.30;;;3.00;;
57573;SDS011;63722;48.858;21.906;2023-02-15T08:18:01;9.55;;;2.88;;
57573;SDS011;63722;48.858;21.906;2023-02-15T08:20:26;8.40;;;2.70;;
57573;SDS011;63722;48.858;21.906;2023-02-15T08:22:52;3.22;;;2.42;;
57573;SDS011;63722;48.858;21.906;2023-02-15T08:25:17;2.83;;;2.63;;
57573;SDS011;63722;48.858;21.906;2023-02-15T08:27:42;3.00;;;2.47;;
57573;SDS011;63722;48.858;21.906;2023-02-15T08:30:08;13.40;;;2.72;;
57573;SDS011;63722;48.858;21.906;2023-02-15T08:32:34;5.43;;;2.90;;
57573;SDS011;63722;48.858;21.906;2023-02-15T08:34:59;4.18;;;2.30;;
57573;SDS011;63722;48.858;21.906;2023-02-15T08:37:24;4.82;;;2.65;;
57573;SDS011;63722;48.858;21.906;2023-02-15T08:39:50;2.75;;;2.55;;
57573;SDS011;63722;48.858;21.906;2023-02-15T08:42:16;3.65;;;2.47;;
57573;SDS011;63722;48.858;21.906;2023-02-15T08:44:42;2.63;;;2.47;;
57573;SDS011;63722;48.858;21.906;2023-02-15T08:47:07;4.80;;;2.40;;
57573;SDS011;63722;48.858;21.906;2023-02-15T08:49:33;3.42;;;2.40;;
57573;SDS011;63722;48.858;21.906;2023-02-15T08:51:58;4.32;;;2.40;;
57573;SDS011;63722;48.858;21.906;2023-02-15T08:54:24;7.18;;;2.67;;
57573;SDS011;63722;48.858;21.906;2023-02-15T08:56:50;6.35;;;2.80;;
57573;SDS011;63722;48.858;21.906;2023-02-15T08:59:19;10.13;;;3.20;;
57573;SDS011;63722;48.858;21.906;2023-02-15T09:01:47;16.02;;;3.05;;
57573;SDS011;63722;48.858;21.906;2023-02-15T09:04:13;12.40;;;3.60;;
57573;SDS011;63722;48.858;21.906;2023-02-15T09:06:41;12.40;;;2.92;;
57573;SDS011;63722;48.858;21.906;2023-02-15T09:09:08;18.75;;;2.92;;
57573;SDS011;63722;48.858;21.906;2023-02-15T09:11:36;8.05;;;2.83;;
57573;SDS011;63722;48.858;21.906;2023-02-15T09:14:04;6.80;;;2.85;;
57573;SDS011;63722;48.858;21.906;2023-02-15T09:16:33;11.68;;;3.53;;
57573;SDS011;63722;48.858;21.906;2023-02-15T09:19:00;10.07;;;2.60;;
57573;SDS011;63722;48.858;21.906;2023-02-15T09:21:26;8.45;;;3.25;;
57573;SDS011;63722;48.858;21.906;2023-02-15T09:24:12;9.65;;;2.47;;
57573;SDS011;63722;48.858;21.906;2023-02-15T09:26:39;10.93;;;2.90;;
57573;SDS011;63722;48.858;21.906;2023-02-15T09:29:07;10.52;;;3.05;;
57573;SDS011;63722;48.858;21.906;2023-02-15T09:31:36;4.50;;;2.55;;
57573;SDS011;63722;48.858;21.906;2023-02-15T09:34:04;7.30;;;2.60;;
57573;SDS011;63722;48.858;21.906;2023-02-15T09:36:33;7.45;;;2.67;;
57573;SDS011;63722;48.858;21.906;2023-02-15T09:39:01;8.25;;;2.88;;
57573;SDS011;63722;48.858;21.906;2023-02-15T09:55:32;3.97;;;2.90;;
57573;SDS011;63722;48.858;21.906;2023-02-15T09:58:28;8.73;;;2.78;;
57573;SDS011;63722;48.858;21.906;2023-02-15T10:10:14;4.47;;;2.67;;
57573;SDS011;63722;48.858;21.906;2023-02-15T10:12:21;12.27;;;2.50;;
57573;SDS011;63722;48.858;21.906;2023-02-15T10:15:05;5.68;;;2.83;;
57573;SDS011;63722;48.858;21.906;2023-02-15T10:23:21;6.32;;;2.97;;
57573;SDS011;63722;48.858;21.906;2023-02-15T10:31:50;5.35;;;2.90;;
57573;SDS011;63722;48.858;21.906;2023-02-15T10:34:37;9.30;;;2.97;;
57573;SDS011;63722;48.858;21.906;2023-02-15T10:38:05;24.33;;;11.02;;
57573;SDS011;63722;48.858;21.906;2023-02-15T10:40:18;10.93;;;7.60;;
57573;SDS011;63722;48.858;21.906;2023-02-15T10:51:03;13.65;;;5.88;;
57573;SDS011;63722;48.858;21.906;2023-02-15T10:56:41;10.77;;;5.30;;
57573;SDS011;63722;48.858;21.906;2023-02-15T10:59:20;16.45;;;5.35;;
57573;SDS011;63722;48.858;21.906;2023-02-15T11:02:02;16.80;;;5.00;;
57573;SDS011;63722;48.858;21.906;2023-02-15T11:05:40;6.30;;;4.60;;
57573;SDS011;63722;48.858;21.906;2023-02-15T11:07:57;6.97;;;4.78;;
57573;SDS011;63722;48.858;21.906;2023-02-15T11:13:09;7.32;;;4.50;;
57573;SDS011;63722;48.858;21.906;2023-02-15T11:15:44;5.15;;;4.70;;
57573;SDS011;63722;48.858;21.906;2023-02-15T11:18:19;6.68;;;4.80;;
57573;SDS011;63722;48.858;21.906;2023-02-15T11:20:55;7.97;;;4.50;;
57573;SDS011;63722;48.858;21.906;2023-02-15T11:23:21;10.13;;;4.70;;
57573;SDS011;63722;48.858;21.906;2023-02-15T11:26:33;10.35;;;4.70;;
57573;SDS011;63722;48.858;21.906;2023-02-15T11:31:26;21.15;;;4.80;;
57573;SDS011;63722;48.858;21.906;2023-02-15T11:34:03;14.65;;;4.93;;
57573;SDS011;63722;48.858;21.906;2023-02-15T11:36:37;10.57;;;4.32;;
57573;SDS011;63722;48.858;21.906;2023-02-15T11:39:09;11.30;;;4.43;;
57573;SDS011;63722;48.858;21.906;2023-02-15T11:41:40;22.95;;;5.10;;
57573;SDS011;63722;48.858;21.906;2023-02-15T11:44:16;17.50;;;4.78;;
57573;SDS011;63722;48.858;21.906;2023-02-15T11:46:45;25.55;;;4.97;;
57573;SDS011;63722;48.858;21.906;2023-02-15T11:51:57;14.35;;;5.95;;
57573;SDS011;63722;48.858;21.906;2023-02-15T11:54:29;10.27;;;5.25;;
57573;SDS011;63722;48.858;21.906;2023-02-15T11:56:58;11.70;;;4.90;;
57573;SDS011;63722;48.858;21.906;2023-02-15T11:59:32;10.93;;;4.55;;
57573;SDS011;63722;48.858;21.906;2023-02-15T12:01:59;6.88;;;4.43;;
57573;SDS011;63722;48.858;21.906;2023-02-15T12:04:38;8.05;;;5.03;;
57573;SDS011;63722;48.858;21.906;2023-02-15T12:07:11;8.50;;;4.68;;
57573;SDS011;63722;48.858;21.906;2023-02-15T12:14:50;4.88;;;4.38;;
57573;SDS011;63722;48.858;21.906;2023-02-15T12:17:18;7.88;;;4.10;;
57573;SDS011;63722;48.858;21.906;2023-02-15T12:19:46;9.80;;;4.40;;
57573;SDS011;63722;48.858;21.906;2023-02-15T12:22:23;6.97;;;4.30;;
57573;SDS011;63722;48.858;21.906;2023-02-15T12:24:51;23.35;;;4.60;;
57573;SDS011;63722;48.858;21.906;2023-02-15T12:27:27;8.25;;;4.20;;
57573;SDS011;63722;48.858;21.906;2023-02-15T12:29:58;4.18;;;3.85;;
57573;SDS011;63722;48.858;21.906;2023-02-15T12:32:36;4.05;;;3.65;;
57573;SDS011;63722;48.858;21.906;2023-02-15T12:35:29;6.90;;;3.80;;
57573;SDS011;63722;48.858;21.906;2023-02-15T12:38:00;5.22;;;3.70;;
57573;SDS011;63722;48.858;21.906;2023-02-15T12:42:55;10.98;;;4.10;;
57573;SDS011;63722;48.858;21.906;2023-02-15T12:45:24;6.47;;;3.53;;
57573;SDS011;63722;48.858;21.906;2023-02-15T12:48:07;5.18;;;4.13;;
57573;SDS011;63722;48.858;21.906;2023-02-15T12:50:44;6.55;;;3.97;;
57573;SDS011;63722;48.858;21.906;2023-02-15T12:53:18;7.65;;;3.80;;
57573;SDS011;63722;48.858;21.906;2023-02-15T12:55:51;7.43;;;4.00;;
57573;SDS011;63722;48.858;21.906;2023-02-15T12:58:18;9.77;;;3.70;;
57573;SDS011;63722;48.858;21.906;2023-02-15T13:00:47;3.70;;;3.38;;
57573;SDS011;63722;48.858;21.906;2023-02-15T13:03:16;5.57;;;4.65;;
57573;SDS011;63722;48.858;21.906;2023-02-15T13:05:44;7.43;;;3.88;;
57573;SDS011;63722;48.858;21.906;2023-02-15T13:08:15;6.50;;;3.38;;
57573;SDS011;63722;48.858;21.906;2023-02-15T13:10:59;4.82;;;3.75;;
57573;SDS011;63722;48.858;21.906;2023-02-15T13:13:36;8.50;;;3.47;;
57573;SDS011;63722;48.858;21.906;2023-02-15T13:16:34;4.50;;;3.60;;
57573;SDS011;63722;48.858;21.906;2023-02-15T13:19:04;6.95;;;3.65;;
57573;SDS011;63722;48.858;21.906;2023-02-15T13:21:37;6.57;;;3.85;;
57573;SDS011;63722;48.858;21.906;2023-02-15T13:24:06;5.93;;;3.53;;
57573;SDS011;63722;48.858;21.906;2023-02-15T13:26:40;4.18;;;3.53;;
57573;SDS011;63722;48.858;21.906;2023-02-15T13:29:12;3.38;;;3.15;;
57573;SDS011;63722;48.858;21.906;2023-02-15T13:31:46;4.65;;;3.80;;
57573;SDS011;63722;48.858;21.906;2023-02-15T13:34:14;7.82;;;3.85;;
57573;SDS011;63722;48.858;21.906;2023-02-15T13:45:30;7.88;;;3.55;;
57573;SDS011;63722;48.858;21.906;2023-02-15T13:50:19;3.92;;;3.53;;
57573;SDS011;63722;48.858;21.906;2023-02-15T13:55:44;7.22;;;3.47;;
57573;SDS011;63722;48.858;21.906;2023-02-15T14:03:59;3.63;;;3.33;;
57573;SDS011;63722;48.858;21.906;2023-02-15T14:15:35;12.27;;;3.65;;
57573;SDS011;63722;48.858;21.906;2023-02-15T14:26:47;6.75;;;3.90;;
57573;SDS011;63722;48.858;21.906;2023-02-15T14:29:20;20.25;;;3.97;;
57573;SDS011;63722;48.858;21.906;2023-02-15T14:32:10;14.82;;;4.20;;
57573;SDS011;63722;48.858;21.906;2023-02-15T14:34:46;20.23;;;3.88;;
57573;SDS011;63722;48.858;21.906;2023-02-15T14:37:26;14.98;;;4.70;;
57573;SDS011;63722;48.858;21.906;2023-02-15T14:40:06;18.00;;;4.32;;
57573;SDS011;63722;48.858;21.906;2023-02-15T14:49:00;21.80;;;5.13;;
57573;SDS011;63722;48.858;21.906;2023-02-15T14:54:08;18.73;;;4.78;;
57573;SDS011;63722;48.858;21.906;2023-02-15T14:56:34;9.60;;;4.43;;
57573;SDS011;63722;48.858;21.906;2023-02-15T14:59:11;11.20;;;3.88;;
57573;SDS011;63722;48.858;21.906;2023-02-15T15:01:38;14.23;;;4.65;;
57573;SDS011;63722;48.858;21.906;2023-02-15T15:04:21;6.35;;;3.95;;
57573;SDS011;63722;48.858;21.906;2023-02-15T15:09:38;11.43;;;4.40;;
57573;SDS011;63722;48.858;21.906;2023-02-15T15:14:46;10.63;;;3.92;;
57573;SDS011;63722;48.858;21.906;2023-02-15T15:20:04;8.02;;;3.83;;
57573;SDS011;63722;48.858;21.906;2023-02-15T15:22:32;6.03;;;4.13;;
57573;SDS011;63722;48.858;21.906;2023-02-15T15:46:51;6.07;;;3.80;;
57573;SDS011;63722;48.858;21.906;2023-02-15T15:49:21;6.32;;;3.85;;
57573;SDS011;63722;48.858;21.906;2023-02-15T15:51:48;5.72;;;3.60;;
57573;SDS011;63722;48.858;21.906;2023-02-15T15:54:18;9.85;;;4.03;;
57573;SDS011;63722;48.858;21.906;2023-02-15T15:56:47;4.93;;;3.63;;
57573;SDS011;63722;48.858;21.906;2023-02-15T15:59:20;6.55;;;4.13;;
57573;SDS011;63722;48.858;21.906;2023-02-15T16:01:48;14.68;;;3.95;;
57573;SDS011;63722;48.858;21.906;2023-02-15T16:04:28;9.82;;;4.20;;
57573;SDS011;63722;48.858;21.906;2023-02-15T16:06:55;7.32;;;4.20;;
57573;SDS011;63722;48.858;21.906;2023-02-15T16:09:23;5.70;;;3.40;;
57573;SDS011;63722;48.858;21.906;2023-02-15T16:11:52;4.72;;;4.07;;
57573;SDS011;63722;48.858;21.906;2023-02-15T16:14:38;5.50;;;4.45;;
57573;SDS011;63722;48.858;21.906;2023-02-15T16:17:06;8.05;;;4.25;;
57573;SDS011;63722;48.858;21.906;2023-02-15T16:19:34;5.70;;;3.92;;
57573;SDS011;63722;48.858;21.906;2023-02-15T16:22:03;4.15;;;3.70;;
57573;SDS011;63722;48.858;21.906;2023-02-15T16:29:56;5.80;;;4.00;;
57573;SDS011;63722;48.858;21.906;2023-02-15T16:32:25;6.03;;;3.63;;
57573;SDS011;63722;48.858;21.906;2023-02-15T16:37:21;4.97;;;3.65;;
57573;SDS011;63722;48.858;21.906;2023-02-15T16:39:48;6.53;;;3.50;;
57573;SDS011;63722;48.858;21.906;2023-02-15T16:42:14;4.32;;;3.92;;
57573;SDS011;63722;48.858;21.906;2023-02-15T16:44:41;5.25;;;3.70;;
57573;SDS011;63722;48.858;21.906;2023-02-15T16:47:11;8.13;;;3.95;;
57573;SDS011;63722;48.858;21.906;2023-02-15T16:49:45;5.53;;;3.70;;
57573;SDS011;63722;48.858;21.906;2023-02-15T16:52:15;4.20;;;3.70;;
57573;SDS011;63722;48.858;21.906;2023-02-15T16:54:45;6.90;;;3.90;;
57573;SDS011;63722;48.858;21.906;2023-02-15T16:57:16;5.07;;;4.07;;
57573;SDS011;63722;48.858;21.906;2023-02-15T16:59:46;4.15;;;3.72;;
57573;SDS011;63722;48.858;21.906;2023-02-15T17:02:16;10.13;;;4.10;;
57573;SDS011;63722;48.858;21.906;2023-02-15T17:07:26;5.10;;;3.92;;
57573;SDS011;63722;48.858;21.906;2023-02-15T17:09:53;4.35;;;3.92;;
57573;SDS011;63722;48.858;21.906;2023-02-15T17:15:37;6.32;;;3.53;;
57573;SDS011;63722;48.858;21.906;2023-02-15T17:18:05;6.68;;;3.80;;
57573;SDS011;63722;48.858;21.906;2023-02-15T17:20:43;3.80;;;3.50;;
57573;SDS011;63722;48.858;21.906;2023-02-15T17:26:40;6.55;;;3.90;;
57573;SDS011;63722;48.858;21.906;2023-02-15T17:31:51;4.20;;;3.88;;
57573;SDS011;63722;48.858;21.906;2023-02-15T17:37:22;5.13;;;4.22;;
57573;SDS011;63722;48.858;21.906;2023-02-15T17:39:49;4.30;;;3.63;;
57573;SDS011;63722;48.858;21.906;2023-02-15T17:42:15;5.00;;;3.72;;
57573;SDS011;63722;48.858;21.906;2023-02-15T17:44:40;3.97;;;3.60;;
57573;SDS011;63722;48.858;21.906;2023-02-15T17:47:06;3.72;;;3.40;;
57573;SDS011;63722;48.858;21.906;2023-02-15T17:49:31;7.03;;;4.35;;
57573;SDS011;63722;48.858;21.906;2023-02-15T17:52:02;4.63;;;3.72;;
57573;SDS011;63722;48.858;21.906;2023-02-15T17:54:27;5.25;;;3.53;;
57573;SDS011;63722;48.858;21.906;2023-02-15T17:57:12;4.25;;;3.78;;
57573;SDS011;63722;48.858;21.906;2023-02-15T17:59:38;4.05;;;3.55;;